sensor_id;sensor_type;location;lat;lon;timestamp;P1;durP1;ratioP1;P2;durP2;ratioP2
60318;SDS011;46163;52.306;5.634;2023-07-08T00:00:09;2.70;;;2.35;;
60318;SDS011;46163;52.306;5.634;2023-07-08T00:02:42;2.53;;;2.08;;
60318;SDS011;46163;52.306;5.634;2023-07-08T00:05:11;5.13;;;2.30;;
60318;SDS011;46163;52.306;5.634;2023-07-08T00:07:40;2.30;;;2.10;;
60318;SDS011;46163;52.306;5.634;2023-07-08T00:10:12;2.78;;;2.42;;
60318;SDS011;46163;52.306;5.634;2023-07-08T00:12:52;2.65;;;2.20;;
60318;SDS011;46163;52.306;5.634;2023-07-08T00:15:29;5.05;;;2.20;;
60318;SDS011;46163;52.306;5.634;2023-07-08T00:17:59;3.35;;;2.35;;
60318;SDS011;46163;52.306;5.634;2023-07-08T00:20:42;3.40;;;2.17;;
60318;SDS011;46163;52.306;5.634;2023-07-08T00:23:10;5.15;;;2.40;;
60318;SDS011;46163;52.306;5.634;2023-07-08T00:25:35;3.03;;;2.55;;
60318;SDS011;46163;52.306;5.634;2023-07-08T00:28:01;3.17;;;2.20;;
60318;SDS011;46163;52.306;5.634;2023-07-08T00:30:31;3.42;;;2.25;;
60318;SDS011;46163;52.306;5.634;2023-07-08T00:32:57;2.88;;;2.25;;
60318;SDS011;46163;52.306;5.634;2023-07-08T00:35:31;3.65;;;2.40;;
60318;SDS011;46163;52.306;5.634;2023-07-08T00:38:00;2.50;;;2.20;;
60318;SDS011;46163;52.306;5.634;2023-07-08T00:40:26;6.97;;;2.65;;
60318;SDS011;46163;52.306;5.634;2023-07-08T00:42:54;2.97;;;2.10;;
60318;SDS011;46163;52.306;5.634;2023-07-08T00:45:29;2.35;;;2.10;;
60318;SDS011;46163;52.306;5.634;2023-07-08T00:48:01;2.47;;;2.05;;
60318;SDS011;46163;52.306;5.634;2023-07-08T00:50:49;3.33;;;2.45;;
60318;SDS011;46163;52.306;5.634;2023-07-08T00:53:27;4.35;;;2.33;;
60318;SDS011;46163;52.306;5.634;2023-07-08T00:55:57;3.20;;;2.13;;
60318;SDS011;46163;52.306;5.634;2023-07-08T00:58:29;3.33;;;2.38;;
60318;SDS011;46163;52.306;5.634;2023-07-08T01:00:58;4.32;;;2.38;;
60318;SDS011;46163;52.306;5.634;2023-07-08T01:03:25;2.60;;;2.40;;
60318;SDS011;46163;52.306;5.634;2023-07-08T01:05:57;3.67;;;2.63;;
60318;SDS011;46163;52.306;5.634;2023-07-08T01:08:30;2.55;;;2.35;;
60318;SDS011;46163;52.306;5.634;2023-07-08T01:10:57;2.47;;;2.20;;
60318;SDS011;46163;52.306;5.634;2023-07-08T01:13:29;3.67;;;2.72;;
60318;SDS011;46163;52.306;5.634;2023-07-08T01:15:59;5.78;;;2.80;;
60318;SDS011;46163;52.306;5.634;2023-07-08T01:18:27;2.40;;;2.20;;
60318;SDS011;46163;52.306;5.634;2023-07-08T01:24:06;3.88;;;2.60;;
60318;SDS011;46163;52.306;5.634;2023-07-08T01:26:37;2.53;;;2.33;;
60318;SDS011;46163;52.306;5.634;2023-07-08T01:29:09;3.75;;;2.33;;
60318;SDS011;46163;52.306;5.634;2023-07-08T01:31:36;5.85;;;2.40;;
60318;SDS011;46163;52.306;5.634;2023-07-08T01:34:02;3.13;;;2.50;;
60318;SDS011;46163;52.306;5.634;2023-07-08T01:36:35;2.85;;;2.42;;
60318;SDS011;46163;52.306;5.634;2023-07-08T01:39:10;2.88;;;2.35;;
60318;SDS011;46163;52.306;5.634;2023-07-08T01:41:50;4.28;;;2.67;;
60318;SDS011;46163;52.306;5.634;2023-07-08T01:44:27;3.10;;;2.33;;
60318;SDS011;46163;52.306;5.634;2023-07-08T01:46:53;4.60;;;2.75;;
60318;SDS011;46163;52.306;5.634;2023-07-08T01:49:21;5.55;;;2.92;;
60318;SDS011;46163;52.306;5.634;2023-07-08T01:51:48;2.67;;;2.40;;
60318;SDS011;46163;52.306;5.634;2023-07-08T01:54:14;2.40;;;2.20;;
60318;SDS011;46163;52.306;5.634;2023-07-08T01:56:40;5.78;;;2.78;;
60318;SDS011;46163;52.306;5.634;2023-07-08T01:59:05;4.25;;;2.60;;
60318;SDS011;46163;52.306;5.634;2023-07-08T02:01:32;3.10;;;2.50;;
60318;SDS011;46163;52.306;5.634;2023-07-08T02:03:57;4.82;;;2.67;;
60318;SDS011;46163;52.306;5.634;2023-07-08T02:06:23;3.35;;;2.70;;
60318;SDS011;46163;52.306;5.634;2023-07-08T02:08:48;2.58;;;2.38;;
60318;SDS011;46163;52.306;5.634;2023-07-08T02:11:16;3.08;;;2.40;;
60318;SDS011;46163;52.306;5.634;2023-07-08T02:13:44;3.30;;;2.53;;
60318;SDS011;46163;52.306;5.634;2023-07-08T02:16:10;3.83;;;2.50;;
60318;SDS011;46163;52.306;5.634;2023-07-08T02:18:37;3.08;;;2.75;;
60318;SDS011;46163;52.306;5.634;2023-07-08T02:21:03;2.75;;;2.47;;
60318;SDS011;46163;52.306;5.634;2023-07-08T02:23:29;3.08;;;2.60;;
60318;SDS011;46163;52.306;5.634;2023-07-08T02:25:54;2.97;;;2.42;;
60318;SDS011;46163;52.306;5.634;2023-07-08T02:28:21;3.13;;;2.33;;
60318;SDS011;46163;52.306;5.634;2023-07-08T02:30:46;2.88;;;2.53;;
60318;SDS011;46163;52.306;5.634;2023-07-08T02:33:15;2.70;;;2.40;;
60318;SDS011;46163;52.306;5.634;2023-07-08T02:35:42;4.90;;;2.55;;
60318;SDS011;46163;52.306;5.634;2023-07-08T02:38:08;5.18;;;2.50;;
60318;SDS011;46163;52.306;5.634;2023-07-08T02:40:34;5.85;;;2.97;;
60318;SDS011;46163;52.306;5.634;2023-07-08T02:42:59;3.58;;;2.33;;
60318;SDS011;46163;52.306;5.634;2023-07-08T02:45:25;3.17;;;2.25;;
60318;SDS011;46163;52.306;5.634;2023-07-08T02:47:50;3.40;;;2.60;;
60318;SDS011;46163;52.306;5.634;2023-07-08T02:50:16;3.00;;;2.63;;
60318;SDS011;46163;52.306;5.634;2023-07-08T02:52:43;3.90;;;2.70;;
60318;SDS011;46163;52.306;5.634;2023-07-08T02:55:09;5.18;;;2.92;;
60318;SDS011;46163;52.306;5.634;2023-07-08T02:57:37;4.47;;;2.45;;
60318;SDS011;46163;52.306;5.634;2023-07-08T03:00:02;2.88;;;2.42;;
60318;SDS011;46163;52.306;5.634;2023-07-08T03:02:31;4.30;;;2.40;;
60318;SDS011;46163;52.306;5.634;2023-07-08T03:04:57;3.03;;;2.30;;
60318;SDS011;46163;52.306;5.634;2023-07-08T03:07:25;10.48;;;2.78;;
60318;SDS011;46163;52.306;5.634;2023-07-08T03:09:51;3.05;;;2.50;;
60318;SDS011;46163;52.306;5.634;2023-07-08T03:12:17;3.38;;;2.75;;
60318;SDS011;46163;52.306;5.634;2023-07-08T03:14:42;4.68;;;2.78;;
60318;SDS011;46163;52.306;5.634;2023-07-08T03:17:11;4.53;;;2.80;;
60318;SDS011;46163;52.306;5.634;2023-07-08T03:19:37;3.30;;;2.83;;
60318;SDS011;46163;52.306;5.634;2023-07-08T03:22:14;3.95;;;2.58;;
60318;SDS011;46163;52.306;5.634;2023-07-08T03:24:42;2.83;;;2.50;;
60318;SDS011;46163;52.306;5.634;2023-07-08T03:27:14;3.85;;;2.50;;
60318;SDS011;46163;52.306;5.634;2023-07-08T03:29:40;2.70;;;2.40;;
60318;SDS011;46163;52.306;5.634;2023-07-08T03:32:10;3.22;;;2.47;;
60318;SDS011;46163;52.306;5.634;2023-07-08T03:34:36;3.13;;;2.33;;
60318;SDS011;46163;52.306;5.634;2023-07-08T03:37:02;4.72;;;2.72;;
60318;SDS011;46163;52.306;5.634;2023-07-08T03:39:27;3.22;;;2.67;;
60318;SDS011;46163;52.306;5.634;2023-07-08T03:41:56;3.33;;;2.53;;
60318;SDS011;46163;52.306;5.634;2023-07-08T03:46:50;2.53;;;2.33;;
60318;SDS011;46163;52.306;5.634;2023-07-08T03:49:19;4.05;;;2.70;;
60318;SDS011;46163;52.306;5.634;2023-07-08T03:51:51;3.67;;;2.63;;
60318;SDS011;46163;52.306;5.634;2023-07-08T03:54:19;7.28;;;2.58;;
60318;SDS011;46163;52.306;5.634;2023-07-08T03:56:48;4.15;;;2.90;;
60318;SDS011;46163;52.306;5.634;2023-07-08T03:59:15;2.50;;;2.30;;
60318;SDS011;46163;52.306;5.634;2023-07-08T04:01:41;4.90;;;2.75;;
60318;SDS011;46163;52.306;5.634;2023-07-08T04:04:08;5.20;;;2.60;;
60318;SDS011;46163;52.306;5.634;2023-07-08T04:06:36;4.63;;;2.63;;
60318;SDS011;46163;52.306;5.634;2023-07-08T04:09:05;3.58;;;2.72;;
60318;SDS011;46163;52.306;5.634;2023-07-08T04:25:00;4.43;;;2.75;;
60318;SDS011;46163;52.306;5.634;2023-07-08T04:27:49;3.08;;;2.35;;
60318;SDS011;46163;52.306;5.634;2023-07-08T04:30:27;2.55;;;2.30;;
60318;SDS011;46163;52.306;5.634;2023-07-08T04:33:09;2.75;;;2.28;;
60318;SDS011;46163;52.306;5.634;2023-07-08T04:35:37;3.45;;;2.80;;
60318;SDS011;46163;52.306;5.634;2023-07-08T04:38:16;2.90;;;2.67;;
60318;SDS011;46163;52.306;5.634;2023-07-08T04:40:45;2.70;;;2.47;;
60318;SDS011;46163;52.306;5.634;2023-07-08T04:43:11;3.55;;;2.50;;
60318;SDS011;46163;52.306;5.634;2023-07-08T04:45:39;5.18;;;2.83;;
60318;SDS011;46163;52.306;5.634;2023-07-08T04:48:10;2.85;;;2.50;;
60318;SDS011;46163;52.306;5.634;2023-07-08T04:50:47;3.78;;;2.75;;
60318;SDS011;46163;52.306;5.634;2023-07-08T04:53:15;2.50;;;2.30;;
60318;SDS011;46163;52.306;5.634;2023-07-08T04:55:42;3.60;;;2.78;;
60318;SDS011;46163;52.306;5.634;2023-07-08T04:58:16;2.55;;;2.33;;
60318;SDS011;46163;52.306;5.634;2023-07-08T05:00:47;4.10;;;2.60;;
60318;SDS011;46163;52.306;5.634;2023-07-08T05:03:18;3.70;;;2.40;;
60318;SDS011;46163;52.306;5.634;2023-07-08T05:05:44;3.17;;;2.50;;
60318;SDS011;46163;52.306;5.634;2023-07-08T05:08:12;5.03;;;3.08;;
60318;SDS011;46163;52.306;5.634;2023-07-08T05:10:39;4.05;;;2.40;;
60318;SDS011;46163;52.306;5.634;2023-07-08T05:13:05;2.78;;;2.28;;
60318;SDS011;46163;52.306;5.634;2023-07-08T05:15:31;2.55;;;2.35;;
60318;SDS011;46163;52.306;5.634;2023-07-08T05:17:57;3.28;;;2.50;;
60318;SDS011;46163;52.306;5.634;2023-07-08T05:20:23;2.60;;;2.30;;
60318;SDS011;46163;52.306;5.634;2023-07-08T05:22:58;4.07;;;2.47;;
60318;SDS011;46163;52.306;5.634;2023-07-08T05:25:26;2.65;;;2.45;;
60318;SDS011;46163;52.306;5.634;2023-07-08T05:28:17;2.40;;;2.20;;
60318;SDS011;46163;52.306;5.634;2023-07-08T05:30:46;4.00;;;2.40;;
60318;SDS011;46163;52.306;5.634;2023-07-08T05:33:15;6.18;;;2.30;;
60318;SDS011;46163;52.306;5.634;2023-07-08T05:35:40;2.40;;;2.20;;
60318;SDS011;46163;52.306;5.634;2023-07-08T05:38:06;3.30;;;2.30;;
60318;SDS011;46163;52.306;5.634;2023-07-08T05:40:32;4.28;;;2.60;;
60318;SDS011;46163;52.306;5.634;2023-07-08T05:42:58;3.92;;;2.40;;
60318;SDS011;46163;52.306;5.634;2023-07-08T05:45:23;2.70;;;2.38;;
60318;SDS011;46163;52.306;5.634;2023-07-08T05:47:52;2.85;;;1.85;;
60318;SDS011;46163;52.306;5.634;2023-07-08T05:50:17;2.95;;;2.42;;
60318;SDS011;46163;52.306;5.634;2023-07-08T05:52:43;2.30;;;2.10;;
60318;SDS011;46163;52.306;5.634;2023-07-08T05:55:09;3.33;;;2.40;;
60318;SDS011;46163;52.306;5.634;2023-07-08T05:57:34;2.20;;;2.00;;
60318;SDS011;46163;52.306;5.634;2023-07-08T06:02:29;3.13;;;2.50;;
60318;SDS011;46163;52.306;5.634;2023-07-08T06:04:54;4.68;;;2.30;;
60318;SDS011;46163;52.306;5.634;2023-07-08T06:07:20;3.28;;;2.38;;
60318;SDS011;46163;52.306;5.634;2023-07-08T06:09:46;2.70;;;2.20;;
60318;SDS011;46163;52.306;5.634;2023-07-08T06:12:12;3.67;;;2.42;;
60318;SDS011;46163;52.306;5.634;2023-07-08T06:14:37;2.20;;;2.00;;
60318;SDS011;46163;52.306;5.634;2023-07-08T06:17:05;2.50;;;2.00;;
60318;SDS011;46163;52.306;5.634;2023-07-08T06:19:32;2.20;;;2.00;;
60318;SDS011;46163;52.306;5.634;2023-07-08T06:21:58;5.38;;;2.30;;
60318;SDS011;46163;52.306;5.634;2023-07-08T06:24:24;2.67;;;2.03;;
60318;SDS011;46163;52.306;5.634;2023-07-08T06:26:49;2.58;;;1.98;;
60318;SDS011;46163;52.306;5.634;2023-07-08T06:29:15;3.95;;;2.10;;
60318;SDS011;46163;52.306;5.634;2023-07-08T06:31:41;2.42;;;2.10;;
60318;SDS011;46163;52.306;5.634;2023-07-08T06:34:07;3.72;;;2.28;;
60318;SDS011;46163;52.306;5.634;2023-07-08T06:36:32;2.42;;;2.03;;
60318;SDS011;46163;52.306;5.634;2023-07-08T06:38:58;2.55;;;2.10;;
60318;SDS011;46163;52.306;5.634;2023-07-08T06:41:24;2.47;;;2.10;;
60318;SDS011;46163;52.306;5.634;2023-07-08T06:43:49;2.55;;;2.10;;
60318;SDS011;46163;52.306;5.634;2023-07-08T06:46:16;2.10;;;1.90;;
60318;SDS011;46163;52.306;5.634;2023-07-08T06:48:44;2.30;;;2.00;;
60318;SDS011;46163;52.306;5.634;2023-07-08T06:51:09;3.83;;;2.08;;
60318;SDS011;46163;52.306;5.634;2023-07-08T06:53:35;3.78;;;2.00;;
60318;SDS011;46163;52.306;5.634;2023-07-08T06:56:00;2.58;;;2.17;;
60318;SDS011;46163;52.306;5.634;2023-07-08T06:58:27;4.57;;;1.80;;
60318;SDS011;46163;52.306;5.634;2023-07-08T07:00:53;3.65;;;2.15;;
60318;SDS011;46163;52.306;5.634;2023-07-08T07:03:19;12.88;;;2.92;;
60318;SDS011;46163;52.306;5.634;2023-07-08T07:05:44;2.50;;;2.30;;
60318;SDS011;46163;52.306;5.634;2023-07-08T07:08:11;2.08;;;1.92;;
60318;SDS011;46163;52.306;5.634;2023-07-08T07:10:37;2.25;;;1.95;;
60318;SDS011;46163;52.306;5.634;2023-07-08T07:13:03;3.28;;;2.00;;
60318;SDS011;46163;52.306;5.634;2023-07-08T07:15:29;2.10;;;1.85;;
60318;SDS011;46163;52.306;5.634;2023-07-08T07:17:56;3.35;;;1.92;;
60318;SDS011;46163;52.306;5.634;2023-07-08T07:20:22;3.10;;;2.00;;
60318;SDS011;46163;52.306;5.634;2023-07-08T07:22:48;2.17;;;1.88;;
60318;SDS011;46163;52.306;5.634;2023-07-08T07:25:14;2.25;;;1.60;;
60318;SDS011;46163;52.306;5.634;2023-07-08T07:27:43;2.30;;;2.03;;
60318;SDS011;46163;52.306;5.634;2023-07-08T07:30:09;2.08;;;1.80;;
60318;SDS011;46163;52.306;5.634;2023-07-08T07:32:41;2.58;;;1.90;;
60318;SDS011;46163;52.306;5.634;2023-07-08T07:35:09;3.65;;;2.10;;
60318;SDS011;46163;52.306;5.634;2023-07-08T07:37:38;3.90;;;2.00;;
60318;SDS011;46163;52.306;5.634;2023-07-08T07:40:06;5.97;;;1.95;;
60318;SDS011;46163;52.306;5.634;2023-07-08T07:42:41;9.75;;;2.30;;
60318;SDS011;46163;52.306;5.634;2023-07-08T07:45:08;5.63;;;2.13;;
60318;SDS011;46163;52.306;5.634;2023-07-08T07:47:35;2.58;;;1.98;;
60318;SDS011;46163;52.306;5.634;2023-07-08T07:50:02;5.65;;;2.00;;
60318;SDS011;46163;52.306;5.634;2023-07-08T07:52:29;1.98;;;1.60;;
60318;SDS011;46163;52.306;5.634;2023-07-08T07:54:55;1.75;;;1.65;;
60318;SDS011;46163;52.306;5.634;2023-07-08T07:57:21;3.17;;;1.90;;
60318;SDS011;46163;52.306;5.634;2023-07-08T07:59:48;2.25;;;1.70;;
60318;SDS011;46163;52.306;5.634;2023-07-08T08:02:17;2.13;;;1.92;;
60318;SDS011;46163;52.306;5.634;2023-07-08T08:07:09;6.53;;;1.90;;
60318;SDS011;46163;52.306;5.634;2023-07-08T08:09:35;2.10;;;1.83;;
60318;SDS011;46163;52.306;5.634;2023-07-08T08:12:02;2.55;;;1.80;;
60318;SDS011;46163;52.306;5.634;2023-07-08T08:14:29;2.83;;;1.73;;
60318;SDS011;46163;52.306;5.634;2023-07-08T08:16:55;3.90;;;1.92;;
60318;SDS011;46163;52.306;5.634;2023-07-08T08:19:20;1.63;;;1.53;;
60318;SDS011;46163;52.306;5.634;2023-07-08T08:21:50;3.22;;;1.75;;
60318;SDS011;46163;52.306;5.634;2023-07-08T08:24:15;2.20;;;2.00;;
60318;SDS011;46163;52.306;5.634;2023-07-08T08:26:41;2.97;;;1.83;;
60318;SDS011;46163;52.306;5.634;2023-07-08T08:29:07;3.50;;;1.65;;
60318;SDS011;46163;52.306;5.634;2023-07-08T08:31:32;2.73;;;1.80;;
60318;SDS011;46163;52.306;5.634;2023-07-08T08:33:58;2.80;;;2.10;;
60318;SDS011;46163;52.306;5.634;2023-07-08T08:36:24;2.87;;;1.80;;
60318;SDS011;46163;52.306;5.634;2023-07-08T08:38:50;2.00;;;1.80;;
60318;SDS011;46163;52.306;5.634;2023-07-08T08:41:17;2.10;;;1.90;;
60318;SDS011;46163;52.306;5.634;2023-07-08T08:43:51;3.70;;;1.77;;
60318;SDS011;46163;52.306;5.634;2023-07-08T08:49:02;1.90;;;1.80;;
60318;SDS011;46163;52.306;5.634;2023-07-08T08:51:39;1.85;;;1.60;;
60318;SDS011;46163;52.306;5.634;2023-07-08T08:54:07;3.17;;;1.95;;
60318;SDS011;46163;52.306;5.634;2023-07-08T09:01:44;3.73;;;2.23;;
60318;SDS011;46163;52.306;5.634;2023-07-08T09:04:19;3.17;;;2.08;;
60318;SDS011;46163;52.306;5.634;2023-07-08T09:06:48;2.63;;;2.10;;
60318;SDS011;46163;52.306;5.634;2023-07-08T09:09:17;2.25;;;1.85;;
60318;SDS011;46163;52.306;5.634;2023-07-08T09:11:57;2.42;;;1.98;;
60318;SDS011;46163;52.306;5.634;2023-07-08T09:14:33;2.20;;;2.03;;
60318;SDS011;46163;52.306;5.634;2023-07-08T09:22:34;2.60;;;1.90;;
60318;SDS011;46163;52.306;5.634;2023-07-08T09:27:47;2.13;;;1.77;;
60318;SDS011;46163;52.306;5.634;2023-07-08T09:30:17;2.05;;;1.85;;
60318;SDS011;46163;52.306;5.634;2023-07-08T09:32:48;2.08;;;1.80;;
60318;SDS011;46163;52.306;5.634;2023-07-08T09:35:19;2.30;;;2.10;;
60318;SDS011;46163;52.306;5.634;2023-07-08T09:37:51;2.92;;;1.98;;
60318;SDS011;46163;52.306;5.634;2023-07-08T09:40:22;2.28;;;1.80;;
60318;SDS011;46163;52.306;5.634;2023-07-08T09:45:24;2.00;;;1.90;;
60318;SDS011;46163;52.306;5.634;2023-07-08T09:52:48;3.75;;;2.15;;
60318;SDS011;46163;52.306;5.634;2023-07-08T09:55:16;1.95;;;1.80;;
60318;SDS011;46163;52.306;5.634;2023-07-08T09:57:43;2.70;;;2.10;;
60318;SDS011;46163;52.306;5.634;2023-07-08T10:00:12;2.70;;;2.30;;
60318;SDS011;46163;52.306;5.634;2023-07-08T10:02:45;3.53;;;2.28;;
60318;SDS011;46163;52.306;5.634;2023-07-08T10:07:53;2.72;;;2.15;;
60318;SDS011;46163;52.306;5.634;2023-07-08T10:10:32;2.38;;;2.17;;
60318;SDS011;46163;52.306;5.634;2023-07-08T10:13:04;3.92;;;2.00;;
60318;SDS011;46163;52.306;5.634;2023-07-08T10:15:42;2.58;;;2.10;;
60318;SDS011;46163;52.306;5.634;2023-07-08T10:18:15;4.93;;;2.78;;
60318;SDS011;46163;52.306;5.634;2023-07-08T10:20:47;2.53;;;2.20;;
60318;SDS011;46163;52.306;5.634;2023-07-08T10:26:33;3.00;;;2.30;;
60318;SDS011;46163;52.306;5.634;2023-07-08T10:37:36;5.07;;;2.72;;
60318;SDS011;46163;52.306;5.634;2023-07-08T10:45:17;3.92;;;3.00;;
60318;SDS011;46163;52.306;5.634;2023-07-08T10:48:06;8.70;;;3.15;;
60318;SDS011;46163;52.306;5.634;2023-07-08T10:56:41;4.85;;;3.03;;
60318;SDS011;46163;52.306;5.634;2023-07-08T11:04:46;8.13;;;3.38;;
60318;SDS011;46163;52.306;5.634;2023-07-08T11:10:20;3.58;;;2.90;;
60318;SDS011;46163;52.306;5.634;2023-07-08T11:12:54;4.10;;;3.30;;
60318;SDS011;46163;52.306;5.634;2023-07-08T11:15:32;3.92;;;3.35;;
60318;SDS011;46163;52.306;5.634;2023-07-08T11:18:13;4.45;;;3.42;;
60318;SDS011;46163;52.306;5.634;2023-07-08T11:21:01;6.60;;;3.57;;
60318;SDS011;46163;52.306;5.634;2023-07-08T11:23:33;4.18;;;3.20;;
60318;SDS011;46163;52.306;5.634;2023-07-08T11:28:45;3.85;;;3.20;;
60318;SDS011;46163;52.306;5.634;2023-07-08T11:31:13;6.30;;;3.40;;
60318;SDS011;46163;52.306;5.634;2023-07-08T11:33:39;4.93;;;3.35;;
60318;SDS011;46163;52.306;5.634;2023-07-08T11:36:06;3.95;;;3.40;;
60318;SDS011;46163;52.306;5.634;2023-07-08T11:38:34;5.78;;;3.50;;
60318;SDS011;46163;52.306;5.634;2023-07-08T11:41:02;4.28;;;3.38;;
60318;SDS011;46163;52.306;5.634;2023-07-08T11:43:42;5.07;;;3.20;;
60318;SDS011;46163;52.306;5.634;2023-07-08T11:46:22;4.43;;;3.33;;
60318;SDS011;46163;52.306;5.634;2023-07-08T11:48:54;6.53;;;3.35;;
60318;SDS011;46163;52.306;5.634;2023-07-08T11:51:23;4.90;;;3.45;;
60318;SDS011;46163;52.306;5.634;2023-07-08T11:53:59;5.57;;;3.17;;
60318;SDS011;46163;52.306;5.634;2023-07-08T11:56:28;4.37;;;3.10;;
60318;SDS011;46163;52.306;5.634;2023-07-08T11:59:16;3.58;;;2.90;;
60318;SDS011;46163;52.306;5.634;2023-07-08T12:01:48;3.85;;;3.25;;
60318;SDS011;46163;52.306;5.634;2023-07-08T12:04:26;5.07;;;3.20;;
60318;SDS011;46163;52.306;5.634;2023-07-08T12:10:05;3.90;;;3.05;;
60318;SDS011;46163;52.306;5.634;2023-07-08T12:12:36;4.28;;;3.17;;
60318;SDS011;46163;52.306;5.634;2023-07-08T12:15:09;3.47;;;2.97;;
60318;SDS011;46163;52.306;5.634;2023-07-08T12:17:39;7.25;;;3.40;;
60318;SDS011;46163;52.306;5.634;2023-07-08T12:20:07;4.93;;;3.22;;
60318;SDS011;46163;52.306;5.634;2023-07-08T12:22:42;4.93;;;3.40;;
60318;SDS011;46163;52.306;5.634;2023-07-08T12:25:18;5.28;;;3.20;;
60318;SDS011;46163;52.306;5.634;2023-07-08T12:27:49;5.00;;;3.33;;
60318;SDS011;46163;52.306;5.634;2023-07-08T12:30:15;7.93;;;3.25;;
60318;SDS011;46163;52.306;5.634;2023-07-08T12:32:42;5.25;;;3.20;;
60318;SDS011;46163;52.306;5.634;2023-07-08T12:35:22;4.90;;;3.40;;
60318;SDS011;46163;52.306;5.634;2023-07-08T12:37:56;4.00;;;3.22;;
60318;SDS011;46163;52.306;5.634;2023-07-08T12:40:27;5.57;;;3.33;;
60318;SDS011;46163;52.306;5.634;2023-07-08T12:42:55;5.10;;;3.35;;
60318;SDS011;46163;52.306;5.634;2023-07-08T12:45:22;6.70;;;3.60;;
60318;SDS011;46163;52.306;5.634;2023-07-08T12:47:52;4.43;;;3.35;;
60318;SDS011;46163;52.306;5.634;2023-07-08T12:50:18;5.18;;;3.58;;
60318;SDS011;46163;52.306;5.634;2023-07-08T12:52:45;4.10;;;3.25;;
60318;SDS011;46163;52.306;5.634;2023-07-08T12:55:13;7.00;;;3.20;;
60318;SDS011;46163;52.306;5.634;2023-07-08T12:57:42;5.25;;;3.17;;
60318;SDS011;46163;52.306;5.634;2023-07-08T13:00:27;6.47;;;3.40;;
60318;SDS011;46163;52.306;5.634;2023-07-08T13:03:03;4.07;;;3.17;;
60318;SDS011;46163;52.306;5.634;2023-07-08T13:05:32;5.13;;;3.40;;
60318;SDS011;46163;52.306;5.634;2023-07-08T13:07:58;5.57;;;3.13;;
60318;SDS011;46163;52.306;5.634;2023-07-08T13:10:25;3.78;;;3.15;;
60318;SDS011;46163;52.306;5.634;2023-07-08T13:12:55;4.20;;;3.03;;
60318;SDS011;46163;52.306;5.634;2023-07-08T13:15:30;6.40;;;3.30;;
60318;SDS011;46163;52.306;5.634;2023-07-08T13:17:59;3.72;;;3.22;;
60318;SDS011;46163;52.306;5.634;2023-07-08T13:20:28;5.22;;;3.20;;
60318;SDS011;46163;52.306;5.634;2023-07-08T13:22:56;4.32;;;3.40;;
60318;SDS011;46163;52.306;5.634;2023-07-08T13:25:26;6.05;;;2.95;;
60318;SDS011;46163;52.306;5.634;2023-07-08T13:27:55;6.65;;;3.50;;
60318;SDS011;46163;52.306;5.634;2023-07-08T13:30:23;4.25;;;3.03;;
60318;SDS011;46163;52.306;5.634;2023-07-08T13:32:57;4.38;;;3.22;;
60318;SDS011;46163;52.306;5.634;2023-07-08T13:35:28;3.72;;;3.20;;
60318;SDS011;46163;52.306;5.634;2023-07-08T13:38:01;3.40;;;3.00;;
60318;SDS011;46163;52.306;5.634;2023-07-08T13:40:28;5.53;;;3.10;;
60318;SDS011;46163;52.306;5.634;2023-07-08T13:42:58;4.40;;;3.10;;
60318;SDS011;46163;52.306;5.634;2023-07-08T13:45:29;4.72;;;3.45;;
60318;SDS011;46163;52.306;5.634;2023-07-08T13:48:01;3.65;;;2.92;;
60318;SDS011;46163;52.306;5.634;2023-07-08T13:50:44;5.25;;;3.13;;
60318;SDS011;46163;52.306;5.634;2023-07-08T13:53:22;5.40;;;3.08;;
60318;SDS011;46163;52.306;5.634;2023-07-08T13:56:00;6.03;;;3.08;;
60318;SDS011;46163;52.306;5.634;2023-07-08T13:58:28;4.55;;;3.20;;
60318;SDS011;46163;52.306;5.634;2023-07-08T14:00:55;5.45;;;3.47;;
60318;SDS011;46163;52.306;5.634;2023-07-08T14:03:22;5.40;;;3.03;;
60318;SDS011;46163;52.306;5.634;2023-07-08T14:05:49;3.40;;;3.10;;
60318;SDS011;46163;52.306;5.634;2023-07-08T14:08:15;4.88;;;3.00;;
60318;SDS011;46163;52.306;5.634;2023-07-08T14:10:43;4.07;;;3.00;;
60318;SDS011;46163;52.306;5.634;2023-07-08T14:13:10;4.67;;;3.00;;
60318;SDS011;46163;52.306;5.634;2023-07-08T14:15:36;3.58;;;2.95;;
60318;SDS011;46163;52.306;5.634;2023-07-08T14:18:03;5.32;;;2.90;;
60318;SDS011;46163;52.306;5.634;2023-07-08T14:20:30;4.77;;;3.20;;
60318;SDS011;46163;52.306;5.634;2023-07-08T14:22:57;4.63;;;3.22;;
60318;SDS011;46163;52.306;5.634;2023-07-08T14:25:23;3.63;;;2.90;;
60318;SDS011;46163;52.306;5.634;2023-07-08T14:27:49;7.55;;;3.10;;
60318;SDS011;46163;52.306;5.634;2023-07-08T14:30:16;4.25;;;3.10;;
60318;SDS011;46163;52.306;5.634;2023-07-08T14:32:42;3.88;;;3.13;;
60318;SDS011;46163;52.306;5.634;2023-07-08T14:35:19;3.75;;;3.08;;
60318;SDS011;46163;52.306;5.634;2023-07-08T14:37:49;5.80;;;3.30;;
60318;SDS011;46163;52.306;5.634;2023-07-08T14:42:45;4.90;;;2.70;;
60318;SDS011;46163;52.306;5.634;2023-07-08T14:45:11;3.75;;;2.95;;
60318;SDS011;46163;52.306;5.634;2023-07-08T14:47:36;4.07;;;3.20;;
60318;SDS011;46163;52.306;5.634;2023-07-08T14:50:12;3.70;;;3.00;;
60318;SDS011;46163;52.306;5.634;2023-07-08T14:52:39;4.00;;;2.80;;
60318;SDS011;46163;52.306;5.634;2023-07-08T14:55:05;4.43;;;3.30;;
60318;SDS011;46163;52.306;5.634;2023-07-08T14:57:37;7.45;;;2.97;;
60318;SDS011;46163;52.306;5.634;2023-07-08T15:00:11;4.68;;;3.17;;
60318;SDS011;46163;52.306;5.634;2023-07-08T15:02:39;4.18;;;3.30;;
60318;SDS011;46163;52.306;5.634;2023-07-08T15:05:18;5.47;;;3.10;;
60318;SDS011;46163;52.306;5.634;2023-07-08T15:07:49;4.30;;;3.13;;
60318;SDS011;46163;52.306;5.634;2023-07-08T15:10:19;3.80;;;3.03;;
60318;SDS011;46163;52.306;5.634;2023-07-08T15:12:47;3.92;;;3.17;;
60318;SDS011;46163;52.306;5.634;2023-07-08T15:15:30;5.40;;;3.20;;
60318;SDS011;46163;52.306;5.634;2023-07-08T15:17:57;3.97;;;2.78;;
60318;SDS011;46163;52.306;5.634;2023-07-08T15:20:24;5.78;;;3.83;;
60318;SDS011;46163;52.306;5.634;2023-07-08T15:22:50;3.90;;;3.15;;
60318;SDS011;46163;52.306;5.634;2023-07-08T15:25:17;9.15;;;3.30;;
60318;SDS011;46163;52.306;5.634;2023-07-08T15:27:45;4.03;;;3.03;;
60318;SDS011;46163;52.306;5.634;2023-07-08T15:30:19;6.57;;;2.95;;
60318;SDS011;46163;52.306;5.634;2023-07-08T15:32:46;4.50;;;3.25;;
60318;SDS011;46163;52.306;5.634;2023-07-08T15:35:13;4.38;;;3.10;;
60318;SDS011;46163;52.306;5.634;2023-07-08T15:37:41;3.72;;;3.17;;
60318;SDS011;46163;52.306;5.634;2023-07-08T15:40:08;4.95;;;3.10;;
60318;SDS011;46163;52.306;5.634;2023-07-08T15:42:34;6.40;;;3.10;;
60318;SDS011;46163;52.306;5.634;2023-07-08T15:45:02;5.55;;;3.33;;
60318;SDS011;46163;52.306;5.634;2023-07-08T15:47:37;6.43;;;3.00;;
60318;SDS011;46163;52.306;5.634;2023-07-08T15:50:07;3.63;;;2.88;;
60318;SDS011;46163;52.306;5.634;2023-07-08T15:52:35;8.05;;;3.15;;
60318;SDS011;46163;52.306;5.634;2023-07-08T15:55:04;7.03;;;3.22;;
60318;SDS011;46163;52.306;5.634;2023-07-08T15:57:30;6.00;;;3.13;;
60318;SDS011;46163;52.306;5.634;2023-07-08T15:59:57;5.55;;;3.35;;
60318;SDS011;46163;52.306;5.634;2023-07-08T16:02:29;5.70;;;3.40;;
60318;SDS011;46163;52.306;5.634;2023-07-08T16:04:56;6.70;;;2.85;;
60318;SDS011;46163;52.306;5.634;2023-07-08T16:07:24;4.55;;;3.17;;
60318;SDS011;46163;52.306;5.634;2023-07-08T16:09:50;5.28;;;3.33;;
60318;SDS011;46163;52.306;5.634;2023-07-08T16:12:17;4.95;;;3.08;;
60318;SDS011;46163;52.306;5.634;2023-07-08T16:14:46;4.68;;;3.17;;
60318;SDS011;46163;52.306;5.634;2023-07-08T16:17:12;4.03;;;3.20;;
60318;SDS011;46163;52.306;5.634;2023-07-08T16:19:38;5.35;;;3.33;;
60318;SDS011;46163;52.306;5.634;2023-07-08T16:22:06;4.38;;;3.13;;
60318;SDS011;46163;52.306;5.634;2023-07-08T16:24:33;6.70;;;3.15;;
60318;SDS011;46163;52.306;5.634;2023-07-08T16:26:59;7.03;;;3.63;;
60318;SDS011;46163;52.306;5.634;2023-07-08T16:29:24;6.28;;;3.17;;